Time;durP1;ratioP1;P1;durP2;ratioP2;P2;SDS_P1;SDS_P2;PMS_P1;PMS_P2;Temp;Humidity;BMP_temperature;BMP_pressure;BME280_temperature;BME280_humidity;BME280_pressure;Samples;Min_cycle;Max_cycle;Signal;HPM_P1;HPM_P2
2022/07/27 00:00:06;;;;;;;11.00;8.23;;;;;;;23.56;45.16;95021.09;5089171;28;20028;-80
2022/07/27 00:02:31;;;;;;;8.98;7.50;;;;;;;23.47;45.12;95018.09;5089283;28;20493;-81
2022/07/27 00:04:57;;;;;;;9.70;7.80;;;;;;;23.45;44.95;95009.31;5088323;28;20032;-80
2022/07/27 00:07:22;;;;;;;11.27;8.10;;;;;;;23.27;44.96;95016.91;5071902;28;20097;-80
2022/07/27 00:09:49;;;;;;;8.70;7.65;;;;;;;23.31;44.84;95019.94;5069436;28;20501;-80
2022/07/27 00:12:14;;;;;;;9.77;7.97;;;;;;;23.21;44.97;95017.97;5089942;28;20125;-80
2022/07/27 00:14:40;;;;;;;8.63;7.80;;;;;;;23.23;44.74;95026.72;5088362;28;20475;-80
2022/07/27 00:17:05;;;;;;;9.93;7.10;;;;;;;23.28;44.79;95028.69;5070429;28;20471;-80
2022/07/27 00:19:31;;;;;;;9.80;8.57;;;;;;;23.21;44.81;95029.72;5088740;28;20020;-80
2022/07/27 00:21:57;;;;;;;9.32;8.15;;;;;;;23.00;45.61;95033.47;5053047;28;20036;-80
2022/07/27 00:24:23;;;;;;;10.93;7.93;;;;;;;23.11;45.27;95026.97;5071288;28;20020;-79
2022/07/27 00:26:48;;;;;;;10.00;8.57;;;;;;;23.06;45.47;95032.41;5069487;28;20032;-80
2022/07/27 00:29:14;;;;;;;10.27;8.93;;;;;;;23.01;46.13;95032.38;5089225;28;20016;-80
2022/07/27 00:31:39;;;;;;;9.95;8.93;;;;;;;23.08;46.07;95041.16;5068992;28;20036;-80
2022/07/27 00:34:05;;;;;;;11.65;8.18;;;;;;;23.18;45.21;95041.19;5054059;28;20490;-80
2022/07/27 00:36:30;;;;;;;9.48;8.13;;;;;;;23.22;45.11;95049.69;5087971;28;20608;-79
2022/07/27 00:38:57;;;;;;;9.73;8.65;;;;;;;23.24;45.18;95049.44;5088612;28;20024;-80
2022/07/27 00:41:22;;;;;;;9.95;8.68;;;;;;;23.28;45.12;95056.03;5088357;28;20035;-80
2022/07/27 00:43:54;;;;;;;10.35;8.80;;;;;;;23.33;45.48;95051.38;5087850;28;20020;-80
2022/07/27 00:46:20;;;;;;;9.20;8.30;;;;;;;23.36;45.21;95057.44;5070780;28;20032;-79
2022/07/27 00:48:46;;;;;;;11.07;8.50;;;;;;;23.30;45.73;95054.66;5052220;28;20426;-80
2022/07/27 00:51:11;;;;;;;10.98;9.00;;;;;;;23.11;46.35;95053.47;5089153;28;20262;-80
2022/07/27 00:53:37;;;;;;;10.80;8.35;;;;;;;22.98;46.43;95050.16;5052485;28;20024;-80
2022/07/27 00:56:03;;;;;;;11.30;9.23;;;;;;;23.03;46.41;95044.72;5070574;28;20460;-80
2022/07/27 00:58:31;;;;;;;9.82;8.82;;;;;;;22.86;47.11;95053.06;5069961;28;20024;-80
2022/07/27 01:00:56;;;;;;;10.65;8.93;;;;;;;22.83;47.26;95051.72;5053122;28;20039;-80
2022/07/27 01:03:22;;;;;;;11.18;8.60;;;;;;;22.95;47.14;95043.31;5088302;28;20016;-80
2022/07/27 01:05:47;;;;;;;11.70;9.30;;;;;;;22.94;47.30;95051.78;5068998;28;20016;-80
2022/07/27 01:08:13;;;;;;;11.20;8.90;;;;;;;22.92;47.46;95053.94;5053954;28;20414;-80
2022/07/27 01:10:43;;;;;;;10.40;8.73;;;;;;;23.00;47.35;95056.19;5068548;28;20410;-81
2022/07/27 01:13:09;;;;;;;10.48;9.43;;;;;;;22.92;47.32;95060.25;5070165;28;20151;-80
2022/07/27 01:15:35;;;;;;;10.75;9.52;;;;;;;22.90;47.53;95062.41;5069235;28;20079;-79
2022/07/27 01:18:01;;;;;;;11.75;9.73;;;;;;;22.92;47.81;95052.03;5052963;28;20513;-79
2022/07/27 01:20:26;;;;;;;10.98;9.88;;;;;;;22.87;47.51;95054.75;5087893;28;20422;-79
2022/07/27 01:22:51;;;;;;;10.40;9.35;;;;;;;22.84;47.56;95067.00;5087059;28;20410;-80
2022/07/27 01:25:17;;;;;;;11.60;9.68;;;;;;;22.82;47.93;95062.91;5088341;28;20024;-80
2022/07/27 01:27:42;;;;;;;11.15;10.13;;;;;;;22.79;48.21;95057.97;5068635;28;20035;-81
2022/07/27 01:30:28;;;;;;;13.20;9.57;;;;;;;22.75;48.60;95060.41;5088576;28;20109;-80
2022/07/27 01:33:04;;;;;;;12.82;10.20;;;;;;;22.70;48.38;95063.09;5058423;28;20177;-80
2022/07/27 01:35:30;;;;;;;11.55;10.27;;;;;;;22.71;48.11;95065.56;5052674;28;20020;-80
2022/07/27 01:37:55;;;;;;;11.88;10.57;;;;;;;22.66;49.01;95062.00;5088297;28;20380;-80
2022/07/27 01:40:21;;;;;;;11.55;10.07;;;;;;;22.65;48.64;95061.16;5051349;28;20028;-79
2022/07/27 01:42:47;;;;;;;11.18;10.07;;;;;;;22.72;49.16;95066.41;5070172;28;20027;-80
2022/07/27 01:45:12;;;;;;;11.13;9.80;;;;;;;22.65;48.61;95076.75;5067920;28;20024;-80
2022/07/27 01:47:38;;;;;;;11.88;10.32;;;;;;;22.52;48.64;95062.41;5088121;28;20074;-80
2022/07/27 01:50:04;;;;;;;10.20;9.25;;;;;;;22.51;48.62;95066.22;5086835;28;20016;-79
2022/07/27 01:52:29;;;;;;;11.50;9.88;;;;;;;22.50;48.55;95071.94;5087774;28;20030;-80
2022/07/27 01:54:55;;;;;;;12.88;10.70;;;;;;;22.50;48.40;95069.22;5069414;28;20032;-80
2022/07/27 01:57:20;;;;;;;11.82;10.23;;;;;;;22.56;48.14;95073.63;5051925;28;20276;-80
2022/07/27 01:59:45;;;;;;;13.43;10.85;;;;;;;22.62;48.11;95063.63;5069389;28;20500;-80
2022/07/27 02:02:14;;;;;;;11.95;10.75;;;;;;;22.44;48.44;95065.66;5088132;28;20032;-79
2022/07/27 02:04:43;;;;;;;12.98;10.57;;;;;;;22.50;48.22;95069.22;5087314;28;20422;-79
2022/07/27 02:07:08;;;;;;;14.75;10.40;;;;;;;22.42;47.30;95067.81;5085810;28;20105;-79
2022/07/27 02:09:34;;;;;;;11.57;9.77;;;;;;;22.42;47.18;95062.34;5069321;28;20016;-79
2022/07/27 02:14:43;;;;;;;12.45;9.43;;;;;;;22.44;46.67;95066.44;5086307;28;20430;-80
2022/07/27 02:17:09;;;;;;;10.23;8.45;;;;;;;22.38;46.35;95069.41;5068675;28;20502;-79
2022/07/27 02:19:34;;;;;;;12.10;9.30;;;;;;;22.43;46.49;95064.81;5050830;28;20028;-80
2022/07/27 02:22:00;;;;;;;13.48;9.38;;;;;;;22.49;46.87;95073.84;5053135;28;20475;-79
2022/07/27 02:24:25;;;;;;;15.50;9.95;;;;;;;22.44;47.42;95068.38;5067187;28;20024;-79
2022/07/27 02:26:50;;;;;;;12.57;9.90;;;;;;;22.47;47.45;95078.78;5087070;28;20032;-79
2022/07/27 02:29:16;;;;;;;13.50;8.95;;;;;;;22.46;47.10;95077.94;5085874;28;20024;-80
2022/07/27 02:31:41;;;;;;;15.23;9.50;;;;;;;22.43;46.99;95083.09;5067683;28;20426;-79
2022/07/27 02:34:07;;;;;;;12.55;8.15;;;;;;;22.47;46.63;95078.78;5086592;28;20024;-80
2022/07/27 02:36:32;;;;;;;11.25;8.75;;;;;;;22.53;46.56;95080.47;5085290;28;20035;-80
2022/07/27 02:38:58;;;;;;;13.95;8.88;;;;;;;22.56;47.06;95073.63;5087317;28;20024;-80
2022/07/27 02:41:23;;;;;;;11.00;7.78;;;;;;;22.52;46.33;95081.53;5067295;28;20032;-80
2022/07/27 02:43:49;;;;;;;9.52;8.52;;;;;;;22.58;46.58;95072.31;5052273;28;20032;-79
2022/07/27 02:46:14;;;;;;;11.10;9.05;;;;;;;22.61;46.81;95081.91;5067234;28;20210;-80
2022/07/27 02:48:39;;;;;;;9.48;8.07;;;;;;;22.51;46.64;95085.34;5069013;28;20020;-80
2022/07/27 02:51:05;;;;;;;9.30;7.60;;;;;;;22.50;46.68;95086.44;5086217;28;20016;-80
2022/07/27 02:53:30;;;;;;;9.90;7.63;;;;;;;22.51;46.57;95085.34;5068142;28;20016;-80
2022/07/27 02:55:56;;;;;;;12.35;8.20;;;;;;;22.55;46.35;95083.75;5068518;28;20036;-80
2022/07/27 02:58:22;;;;;;;13.98;8.70;;;;;;;22.45;46.64;95089.97;5085177;28;20035;-80
2022/07/27 03:00:47;;;;;;;9.45;8.45;;;;;;;22.47;46.26;95078.78;5068205;28;20028;-81
2022/07/27 03:03:12;;;;;;;10.45;8.05;;;;;;;22.45;46.35;95094.59;5066514;28;20074;-80
2022/07/27 03:05:39;;;;;;;16.98;8.90;;;;;;;22.51;46.56;95099.00;5086796;28;20035;-80
2022/07/27 03:08:04;;;;;;;10.88;7.82;;;;;;;22.49;46.44;95101.19;5084618;28;20031;-78
2022/07/27 03:10:30;;;;;;;9.43;7.93;;;;;;;22.53;46.31;95110.53;5067972;28;20024;-79
2022/07/27 03:12:56;;;;;;;8.70;7.63;;;;;;;22.53;47.04;95105.06;5050387;28;20040;-79
2022/07/27 03:15:22;;;;;;;10.60;8.18;;;;;;;22.50;46.97;95108.31;5066996;28;20492;-79
2022/07/27 03:17:47;;;;;;;11.25;8.52;;;;;;;22.51;46.62;95101.75;5085882;28;20040;-79
2022/07/27 03:20:12;;;;;;;13.48;8.68;;;;;;;22.44;46.95;95104.69;5084357;28;20031;-79
2022/07/27 03:22:38;;;;;;;12.13;8.25;;;;;;;22.40;46.74;95106.31;5068101;28;20467;-81
2022/07/27 03:25:04;;;;;;;12.45;8.85;;;;;;;22.46;46.65;95109.91;5084079;28;20043;-79
2022/07/27 03:27:29;;;;;;;12.77;8.43;;;;;;;22.43;46.80;95107.69;5051557;28;20107;-79
2022/07/27 03:29:55;;;;;;;10.13;8.18;;;;;;;22.28;47.97;95111.13;5065446;28;20031;-79
2022/07/27 03:32:20;;;;;;;12.88;8.63;;;;;;;22.23;47.43;95107.25;5050488;28;20052;-79
2022/07/27 03:34:46;;;;;;;13.35;8.73;;;;;;;22.22;48.34;95108.34;5067453;28;20093;-80
2022/07/27 03:37:11;;;;;;;18.90;8.80;;;;;;;22.14;48.51;95116.19;5066105;28;20040;-79
2022/07/27 03:39:37;;;;;;;14.13;9.10;;;;;;;22.12;48.06;95119.16;5086204;28;20028;-79
2022/07/27 03:42:02;;;;;;;15.60;10.48;;;;;;;22.05;48.60;95113.09;5065341;28;20036;-80
2022/07/27 03:44:28;;;;;;;13.80;9.07;;;;;;;22.04;48.12;95117.72;5068014;28;20048;-79
2022/07/27 03:46:53;;;;;;;19.15;9.70;;;;;;;22.01;48.18;95122.88;5084339;28;20028;-80
2022/07/27 03:49:19;;;;;;;12.25;8.70;;;;;;;22.00;48.40;95116.59;5086693;28;20540;-80
2022/07/27 03:51:44;;;;;;;14.63;9.27;;;;;;;22.03;49.16;95115.25;5084876;28;20073;-79
2022/07/27 03:54:10;;;;;;;11.18;8.43;;;;;;;21.88;49.28;95119.47;5085047;28;20047;-80
2022/07/27 03:56:35;;;;;;;11.85;9.05;;;;;;;21.89;49.45;95118.41;5067497;28;20081;-79
2022/07/27 03:59:00;;;;;;;20.83;9.30;;;;;;;21.91;48.95;95123.63;5084414;28;20024;-79
2022/07/27 04:01:26;;;;;;;17.38;9.48;;;;;;;21.91;49.11;95120.88;5051157;28;20410;-80
2022/07/27 04:03:51;;;;;;;16.33;9.45;;;;;;;22.00;48.51;95126.69;5083531;28;20028;-80
2022/07/27 04:06:17;;;;;;;15.40;8.70;;;;;;;22.04;49.33;95125.13;5050814;28;20028;-80
2022/07/27 04:08:42;;;;;;;17.88;9.27;;;;;;;22.08;49.06;95128.97;5049387;28;20505;-80
2022/07/27 04:11:08;;;;;;;21.20;8.80;;;;;;;22.10;48.92;95138.53;5085324;28;20024;-80
2022/07/27 04:13:33;;;;;;;15.45;9.18;;;;;;;22.21;48.98;95131.28;5084877;28;20028;-81
2022/07/27 04:15:59;;;;;;;16.42;8.38;;;;;;;22.20;49.35;95126.91;5084129;28;20032;-80
2022/07/27 04:18:24;;;;;;;16.98;8.15;;;;;;;22.27;49.64;95134.88;5068596;28;20023;-79
2022/07/27 04:20:50;;;;;;;15.63;8.73;;;;;;;22.35;48.96;95128.94;5065292;28;20024;-79
2022/07/27 04:23:15;;;;;;;11.95;8.65;;;;;;;22.42;49.19;95130.63;5067724;28;20027;-79
2022/07/27 04:25:41;;;;;;;9.07;7.22;;;;;;;22.47;48.93;95133.41;5065406;28;20103;-80
2022/07/27 04:28:06;;;;;;;12.13;7.97;;;;;;;22.55;48.44;95132.94;5085683;28;20075;-80
2022/07/27 04:30:32;;;;;;;14.98;8.57;;;;;;;22.51;48.31;95140.00;5065779;28;20023;-80
2022/07/27 04:32:57;;;;;;;11.68;7.50;;;;;;;22.73;48.27;95139.13;5084546;28;20514;-81
2022/07/27 04:35:23;;;;;;;12.70;7.75;;;;;;;22.87;48.07;95139.50;5066493;28;20422;-80
2022/07/27 04:37:48;;;;;;;14.30;7.68;;;;;;;23.11;49.92;95133.63;5049203;28;20077;-80
2022/07/27 04:40:13;;;;;;;11.40;7.93;;;;;;;23.27;49.37;95145.47;5085584;28;20422;-80
2022/07/27 04:42:39;;;;;;;10.95;7.38;;;;;;;23.39;48.41;95147.22;5068674;28;20400;-81
2022/07/27 04:45:05;;;;;;;13.18;7.82;;;;;;;23.57;48.48;95149.47;5054324;28;20026;-81
2022/07/27 04:47:30;;;;;;;16.90;7.68;;;;;;;23.65;48.66;95155.53;5068730;28;20491;-80
2022/07/27 04:49:56;;;;;;;12.25;7.93;;;;;;;23.60;48.99;95160.97;5053813;28;20487;-79
2022/07/27 04:52:21;;;;;;;10.98;7.40;;;;;;;23.64;49.26;95168.41;5069209;28;20474;-81
2022/07/27 04:54:51;;;;;;;8.27;6.97;;;;;;;23.76;48.96;95162.69;5069641;28;20503;-80
2022/07/27 04:57:16;;;;;;;10.60;7.28;;;;;;;23.55;49.38;95170.81;5070294;28;20092;-81
2022/07/27 04:59:42;;;;;;;11.25;7.13;;;;;;;23.78;49.26;95165.16;5068859;28;20031;-80
2022/07/27 05:02:07;;;;;;;12.80;7.47;;;;;;;23.88;49.00;95165.19;5088845;28;20414;-80
2022/07/27 05:04:33;;;;;;;12.25;7.00;;;;;;;23.91;49.26;95166.56;5068041;28;20426;-81
2022/07/27 05:06:58;;;;;;;13.30;7.25;;;;;;;23.91;49.70;95163.81;5070684;28;20497;-80
2022/07/27 05:09:24;;;;;;;21.25;7.40;;;;;;;24.01;50.02;95173.97;5077133;28;20024;-81
2022/07/27 05:11:49;;;;;;;11.85;6.65;;;;;;;23.98;50.20;95177.25;5069682;28;20032;-81
2022/07/27 05:14:15;;;;;;;17.00;7.55;;;;;;;24.03;50.49;95175.38;5069705;28;20332;-81
2022/07/27 05:16:40;;;;;;;12.75;6.38;;;;;;;24.41;49.59;95174.38;5051673;28;20036;-81
2022/07/27 05:19:06;;;;;;;13.23;6.88;;;;;;;24.25;50.11;95182.56;5088741;28;20040;-82
2022/07/27 05:21:31;;;;;;;8.85;7.15;;;;;;;24.32;50.26;95177.69;5085830;28;20032;-80
2022/07/27 05:23:56;;;;;;;10.10;6.95;;;;;;;24.15;50.60;95172.41;5070417;28;20039;-81
2022/07/27 05:26:22;;;;;;;10.23;6.93;;;;;;;24.30;50.46;95177.13;5085988;28;20024;-80
2022/07/27 05:28:47;;;;;;;10.73;6.20;;;;;;;24.41;50.24;95175.19;5070046;28;20417;-80
2022/07/27 05:31:13;;;;;;;14.75;7.13;;;;;;;24.62;49.76;95179.91;5068216;28;20044;-81
2022/07/27 05:33:39;;;;;;;10.45;7.05;;;;;;;24.69;49.50;95175.78;5087135;28;20101;-80
2022/07/27 05:36:04;;;;;;;14.77;6.72;;;;;;;24.69;49.49;95175.78;5069427;28;20028;-80
2022/07/27 05:38:32;;;;;;;11.30;6.47;;;;;;;24.71;49.55;95172.78;5067974;28;20028;-80
2022/07/27 05:40:57;;;;;;;10.57;6.63;;;;;;;24.79;49.67;95174.97;5053876;28;20034;-80
2022/07/27 05:43:23;;;;;;;10.50;6.80;;;;;;;24.78;49.99;95177.97;5085857;28;20036;-80
2022/07/27 05:45:49;;;;;;;12.05;6.75;;;;;;;24.83;50.19;95174.41;5088137;28;20035;-78
2022/07/27 05:48:14;;;;;;;10.85;6.50;;;;;;;24.69;50.43;95178.53;5068165;28;20028;-80
2022/07/27 05:50:40;;;;;;;8.98;6.65;;;;;;;24.51;50.99;95174.41;5069179;28;20460;-80
2022/07/27 05:53:05;;;;;;;9.25;6.97;;;;;;;24.51;50.47;95174.41;5067894;28;20032;-80
2022/07/27 05:55:31;;;;;;;8.35;6.22;;;;;;;24.47;51.42;95183.44;5068191;28;20111;-82
2022/07/27 05:57:56;;;;;;;12.10;7.00;;;;;;;24.63;51.22;95176.06;5087574;28;20032;-81
2022/07/27 06:00:22;;;;;;;10.77;6.10;;;;;;;24.54;51.03;95182.06;5067364;28;20028;-80
2022/07/27 06:02:47;;;;;;;11.80;6.78;;;;;;;24.52;50.96;95180.72;5087462;28;20069;-80
2022/07/27 06:05:12;;;;;;;8.77;6.72;;;;;;;24.63;50.60;95181.53;5085214;28;20486;-81
2022/07/27 06:10:22;;;;;;;13.05;7.03;;;;;;;24.31;51.46;95184.22;5086545;28;20092;-81
2022/07/27 06:12:47;;;;;;;10.20;6.75;;;;;;;24.22;51.99;95177.63;5085814;28;20310;-80
2022/07/27 06:15:13;;;;;;;8.57;6.38;;;;;;;24.24;51.82;95180.94;5087433;28;20031;-80
2022/07/27 06:17:39;;;;;;;11.93;6.80;;;;;;;24.24;51.68;95189.16;5085272;28;20027;-81
2022/07/27 06:20:05;;;;;;;13.13;7.00;;;;;;;24.24;51.92;95185.59;5087260;28;20051;-81
2022/07/27 06:22:31;;;;;;;9.07;6.38;;;;;;;24.17;51.71;95186.66;5084831;28;20073;-80
2022/07/27 06:24:56;;;;;;;12.38;6.97;;;;;;;24.27;51.95;95196.84;5087064;28;20027;-82
2022/07/27 06:27:22;;;;;;;10.68;6.65;;;;;;;24.41;51.52;95190.81;5067404;28;20019;-81
2022/07/27 06:29:47;;;;;;;11.25;6.85;;;;;;;24.44;51.51;95190.28;5067910;28;20031;-81
2022/07/27 06:32:13;;;;;;;12.35;7.05;;;;;;;24.40;51.59;95189.19;5067861;28;20419;-80
2022/07/27 06:34:38;;;;;;;15.80;7.28;;;;;;;24.54;51.47;95195.78;5050471;28;20097;-80
2022/07/27 06:37:04;;;;;;;12.07;7.35;;;;;;;24.63;51.02;95195.25;5086884;28;20434;-80
2022/07/27 06:39:29;;;;;;;10.55;7.60;;;;;;;24.74;50.96;95185.09;5084704;28;20032;-80
2022/07/27 06:41:55;;;;;;;13.57;6.72;;;;;;;24.94;50.89;95187.88;5068223;28;20035;-81
2022/07/27 06:44:20;;;;;;;12.13;6.85;;;;;;;25.22;50.05;95186.72;5066700;28;20470;-81
2022/07/27 06:46:46;;;;;;;11.23;7.00;;;;;;;25.41;48.76;95186.97;5068212;28;20028;-81
2022/07/27 06:49:12;;;;;;;10.20;7.18;;;;;;;25.40;48.69;95185.34;5067240;28;20133;-81
2022/07/27 06:51:38;;;;;;;10.75;6.72;;;;;;;25.38;49.34;95193.00;5051334;28;20101;-81
2022/07/27 06:54:03;;;;;;;14.75;7.15;;;;;;;25.74;49.11;95181.97;5068042;28;20034;-82
2022/07/27 06:56:30;;;;;;;14.68;7.68;;;;;;;25.86;48.06;95183.56;5066843;28;20024;-83
2022/07/27 06:58:55;;;;;;;9.50;6.63;;;;;;;25.95;48.06;95176.38;5068442;28;20020;-83
2022/07/27 07:01:21;;;;;;;10.32;6.50;;;;;;;25.98;48.03;95175.81;5066207;28;20411;-82
2022/07/27 07:03:46;;;;;;;9.82;6.80;;;;;;;26.15;47.13;95175.44;5051256;28;20019;-82
2022/07/27 07:06:12;;;;;;;12.10;7.00;;;;;;;26.01;46.96;95175.25;5066421;28;20027;-81
2022/07/27 07:08:37;;;;;;;13.65;6.95;;;;;;;26.10;47.23;95171.91;5067752;28;20028;-81
2022/07/27 07:11:03;;;;;;;13.55;7.18;;;;;;;25.91;46.31;95165.13;5050111;28;20131;-80
2022/07/27 07:13:28;;;;;;;10.75;7.00;;;;;;;26.16;46.28;95170.78;5084574;28;20082;-81
2022/07/27 07:15:55;;;;;;;12.63;6.28;;;;;;;26.27;45.67;95164.13;5067815;28;20036;-82
2022/07/27 07:18:20;;;;;;;16.92;9.55;;;;;;;26.23;45.82;95160.28;5084369;28;20028;-81
2022/07/27 07:20:46;;;;;;;11.20;6.28;;;;;;;26.38;44.67;95166.81;5086295;28;20035;-81
2022/07/27 07:23:11;;;;;;;12.85;7.07;;;;;;;26.27;45.47;95160.53;5065639;28;20035;-81
2022/07/27 07:25:37;;;;;;;14.90;7.22;;;;;;;26.23;45.12;95157.53;5067999;28;20032;-82
2022/07/27 07:28:04;;;;;;;16.38;6.95;;;;;;;26.28;44.51;95157.50;5066352;28;20077;-81
2022/07/27 07:30:29;;;;;;;14.75;7.05;;;;;;;26.48;43.97;95161.25;5085327;28;20086;-81
2022/07/27 07:32:55;;;;;;;11.25;7.05;;;;;;;26.36;43.97;95163.56;5050390;28;20048;-81
2022/07/27 07:35:21;;;;;;;8.05;6.13;;;;;;;26.41;44.90;95158.84;5049692;28;20031;-81
2022/07/27 07:37:46;;;;;;;8.52;6.05;;;;;;;26.70;44.50;95170.19;5067893;28;20124;-81
2022/07/27 07:40:11;;;;;;;9.88;6.20;;;;;;;26.98;43.60;95160.31;5065282;28;20085;-80
2022/07/27 07:43:06;;;;;;;14.73;6.10;;;;;;;27.09;43.10;95160.22;5067884;28;20548;-81
2022/07/27 07:45:36;;;;;;;12.43;6.47;;;;;;;27.02;43.15;95158.66;5067155;28;20066;-81
2022/07/27 07:48:02;;;;;;;14.95;6.53;;;;;;;26.99;43.28;95153.69;5066421;28;20496;-81
2022/07/27 07:50:28;;;;;;;11.85;6.63;;;;;;;27.27;42.33;95147.69;5050983;28;20020;-81
2022/07/27 07:52:54;;;;;;;14.88;6.65;;;;;;;27.52;42.63;95159.50;5083884;28;20031;-81
2022/07/27 07:55:26;;;;;;;9.65;6.10;;;;;;;27.32;41.07;95155.06;5067643;28;20056;-81
2022/07/27 07:57:52;;;;;;;12.82;6.53;;;;;;;27.33;40.89;95151.19;5065759;28;20402;-80
2022/07/27 08:00:17;;;;;;;10.50;6.70;;;;;;;27.47;41.87;95157.63;5067522;28;20024;-80
2022/07/27 08:02:43;;;;;;;12.52;7.15;;;;;;;27.57;41.92;95162.22;5049608;28;20032;-81
2022/07/27 08:05:09;;;;;;;10.95;6.95;;;;;;;27.50;41.91;95165.31;5084682;28;20020;-81
2022/07/27 08:07:34;;;;;;;10.90;6.50;;;;;;;27.75;39.96;95162.59;5067120;28;20507;-81
2022/07/27 08:10:00;;;;;;;12.10;6.35;;;;;;;28.10;39.92;95162.44;5083930;28;20028;-81
2022/07/27 08:12:25;;;;;;;14.48;6.70;;;;;;;28.11;40.20;95164.06;5085175;28;20529;-81
2022/07/27 08:14:51;;;;;;;12.15;6.70;;;;;;;28.04;40.22;95158.91;5065052;28;20032;-81
2022/07/27 08:17:16;;;;;;;10.45;6.43;;;;;;;28.01;40.60;95159.50;5054004;28;20024;-81
2022/07/27 08:19:41;;;;;;;9.55;6.53;;;;;;;27.76;39.47;95159.53;5069338;28;20024;-82
2022/07/27 08:22:08;;;;;;;11.07;6.55;;;;;;;27.83;39.06;95159.19;5054576;28;20055;-81
2022/07/27 08:24:33;;;;;;;11.27;6.35;;;;;;;27.79;39.52;95149.06;5088377;28;20521;-82
2022/07/27 08:26:59;;;;;;;8.80;6.05;;;;;;;27.72;39.60;95141.97;5088065;28;20078;-82
2022/07/27 08:29:25;;;;;;;10.73;6.68;;;;;;;27.83;39.58;95152.84;5088982;28;20067;-83
2022/07/27 08:31:51;;;;;;;11.50;6.60;;;;;;;27.86;39.30;95144.00;5069607;28;20486;-82
2022/07/27 08:34:16;;;;;;;8.50;6.18;;;;;;;28.26;38.22;95146.50;5070896;28;20039;-81
2022/07/27 08:36:42;;;;;;;9.90;6.68;;;;;;;28.35;37.98;95141.16;5068732;28;20020;-82
2022/07/27 08:39:07;;;;;;;7.90;6.80;;;;;;;28.37;37.90;95136.16;5089208;28;20020;-82
2022/07/27 08:41:32;;;;;;;11.60;6.65;;;;;;;28.36;38.26;95137.25;5087095;28;20379;-82
2022/07/27 08:43:58;;;;;;;8.27;6.05;;;;;;;28.53;38.16;95130.41;5053420;28;20056;-82
2022/07/27 08:46:24;;;;;;;12.55;7.22;;;;;;;28.54;37.40;95129.28;5088234;28;20028;-82
2022/07/27 08:48:50;;;;;;;10.48;6.32;;;;;;;28.80;36.88;95129.69;5052519;28;20064;-81
2022/07/27 08:51:15;;;;;;;13.98;7.28;;;;;;;28.67;37.29;95127.69;5070734;28;20035;-81
2022/07/27 08:53:41;;;;;;;9.88;6.10;;;;;;;29.10;37.37;95126.72;5068210;28;20012;-81
2022/07/27 08:56:07;;;;;;;6.93;6.03;;;;;;;29.15;36.48;95118.34;5054483;28;20425;-82
2022/07/27 08:58:33;;;;;;;8.80;6.28;;;;;;;29.01;36.69;95112.81;5051537;28;20097;-82
2022/07/27 09:00:58;;;;;;;18.70;6.72;;;;;;;28.63;37.41;95124.75;5070388;28;20028;-82
2022/07/27 09:03:24;;;;;;;9.38;6.00;;;;;;;28.62;36.72;95120.31;5069150;28;20020;-82
2022/07/27 09:05:54;;;;;;;7.20;6.03;;;;;;;28.68;36.73;95127.38;5069501;28;20112;-82
2022/07/27 09:08:22;;;;;;;8.77;6.75;;;;;;;28.69;36.95;95106.97;5053832;28;20024;-81
2022/07/27 09:10:48;;;;;;;8.60;6.03;;;;;;;28.65;37.41;95116.16;5052407;28;20548;-81
2022/07/27 09:13:32;;;;;;;8.70;6.70;;;;;;;28.55;37.19;95117.94;5087047;28;20024;-81
2022/07/27 09:16:04;;;;;;;14.00;6.10;;;;;;;28.57;37.03;95104.69;5086607;28;20099;-80
2022/07/27 09:18:32;;;;;;;10.63;6.10;;;;;;;28.66;37.72;95102.06;5070711;28;20043;-81
2022/07/27 09:21:09;;;;;;;9.75;6.28;;;;;;;29.14;37.79;95108.44;5069989;28;20036;-81
2022/07/27 09:23:34;;;;;;;6.82;5.97;;;;;;;29.37;36.60;95103.81;5068171;28;20590;-81
2022/07/27 09:26:29;;;;;;;9.02;5.93;;;;;;;29.08;36.88;95098.59;5070268;28;20124;-81
2022/07/27 09:29:00;;;;;;;11.07;6.50;;;;;;;28.97;37.26;95098.78;5050464;28;20161;-81
2022/07/27 09:31:26;;;;;;;12.73;6.22;;;;;;;28.98;36.86;95103.19;5053199;28;20520;-81
2022/07/27 09:33:55;;;;;;;7.85;6.10;;;;;;;29.25;36.35;95100.75;5052269;28;20036;-81
2022/07/27 09:36:22;;;;;;;6.97;6.00;;;;;;;29.15;36.18;95103.72;5051963;28;20107;-81
2022/07/27 09:38:50;;;;;;;10.50;6.32;;;;;;;29.15;36.04;95096.25;5052997;28;20559;-80
2022/07/27 09:41:16;;;;;;;8.00;5.93;;;;;;;29.39;36.61;95095.25;5067506;28;20059;-81
2022/07/27 09:43:45;;;;;;;8.05;5.75;;;;;;;29.74;35.59;95095.66;5087016;28;20075;-81
2022/07/27 09:46:11;;;;;;;10.60;6.00;;;;;;;29.83;36.50;95090.22;5086062;28;20569;-81
2022/07/27 09:48:36;;;;;;;10.52;6.30;;;;;;;29.55;35.67;95083.91;5069250;28;20125;-81
2022/07/27 09:51:03;;;;;;;11.88;5.97;;;;;;;29.44;35.52;95091.59;5068535;28;20031;-81
2022/07/27 09:53:34;;;;;;;10.30;6.28;;;;;;;29.39;35.75;95092.47;5051765;28;20490;-83
2022/07/27 09:56:08;;;;;;;13.43;5.72;;;;;;;29.75;35.47;95085.44;5070027;28;20024;-82
2022/07/27 09:58:40;;;;;;;8.88;6.03;;;;;;;29.53;34.75;95075.91;5050704;28;20028;-81
2022/07/27 10:01:06;;;;;;;9.93;6.00;;;;;;;29.60;34.28;95086.56;5087636;28;20111;-82
2022/07/27 10:03:31;;;;;;;8.73;5.90;;;;;;;29.97;34.99;95079.13;5051052;28;20429;-81
2022/07/27 10:05:57;;;;;;;10.82;6.55;;;;;;;30.13;34.70;95076.03;5087306;28;20462;-83
2022/07/27 10:08:23;;;;;;;10.38;6.22;;;;;;;30.07;32.90;95075.31;5050959;28;20040;-81
2022/07/27 10:10:48;;;;;;;8.45;5.80;;;;;;;29.82;33.59;95076.72;5067709;28;20443;-81
2022/07/27 10:13:14;;;;;;;8.63;5.75;;;;;;;29.63;33.51;95074.91;5052021;28;20032;-81
2022/07/27 10:15:40;;;;;;;14.55;6.03;;;;;;;29.76;33.80;95069.69;5085322;28;20024;-82
2022/07/27 10:18:16;;;;;;;9.27;5.97;;;;;;;29.97;33.55;95078.34;5052910;28;20024;-80
2022/07/27 10:20:41;;;;;;;13.88;7.10;;;;;;;29.91;33.23;95066.56;5050493;28;20505;-81
2022/07/27 10:23:08;;;;;;;9.40;6.40;;;;;;;29.92;33.38;95062.66;5052027;28;20064;-81
2022/07/27 10:25:33;;;;;;;7.57;5.88;;;;;;;30.01;33.55;95070.22;5085883;28;20031;-81
2022/07/27 10:28:17;;;;;;;7.00;5.95;;;;;;;29.77;33.57;95068.53;5085962;28;20380;-83
2022/07/27 10:30:42;;;;;;;11.45;6.05;;;;;;;29.83;34.70;95068.13;5068830;28;20121;-82
2022/07/27 10:33:15;;;;;;;6.72;6.00;;;;;;;30.22;33.50;95065.06;5066239;28;20483;-82
2022/07/27 10:35:41;;;;;;;6.97;6.07;;;;;;;30.04;32.33;95064.06;5068933;28;20583;-82
2022/07/27 10:38:14;;;;;;;8.68;5.90;;;;;;;30.39;31.51;95061.63;5066199;28;20064;-82
2022/07/27 10:40:40;;;;;;;6.57;5.60;;;;;;;30.44;32.35;95064.25;5086528;28;20020;-81
2022/07/27 10:43:25;;;;;;;11.77;6.10;;;;;;;30.73;31.95;95056.63;5067633;28;20028;-81
2022/07/27 10:45:51;;;;;;;6.47;5.85;;;;;;;30.86;31.87;95049.41;5065670;28;20055;-80
2022/07/27 10:48:42;;;;;;;10.73;6.15;;;;;;;31.02;31.10;95037.94;5086722;28;20028;-81
2022/07/27 10:51:08;;;;;;;9.40;6.40;;;;;;;30.52;31.79;95040.53;5080683;28;20119;-82
2022/07/27 10:53:38;;;;;;;24.17;7.47;;;;;;;30.31;32.59;95040.25;5067964;28;20036;-82
2022/07/27 10:56:05;;;;;;;10.05;6.20;;;;;;;30.72;31.48;95042.00;5051193;28;20036;-81
2022/07/27 10:58:30;;;;;;;8.90;6.40;;;;;;;30.90;31.40;95039.34;5050415;28;20032;-81
2022/07/27 11:01:03;;;;;;;6.82;6.18;;;;;;;30.71;31.53;95034.00;5067642;28;20165;-81
2022/07/27 11:03:35;;;;;;;9.63;6.85;;;;;;;30.77;31.62;95027.19;5066167;28;20016;-83
2022/07/27 11:06:13;;;;;;;;;;;;;;;30.98;31.51;95032.22;5052855;28;20027;-82
2022/07/27 11:08:42;;;;;;;9.15;6.38;;;;;;;31.07;31.47;95023.94;5066917;28;19912;-80
2022/07/27 11:11:16;;;;;;;8.57;6.65;;;;;;;31.43;31.01;95022.94;5067531;28;20103;-82
2022/07/27 11:13:42;;;;;;;21.35;7.20;;;;;;;31.21;30.46;95024.63;5051946;28;20471;-82
2022/07/27 11:16:09;;;;;;;9.90;6.97;;;;;;;31.12;30.27;95021.03;5065578;28;20035;-81
2022/07/27 11:18:36;;;;;;;13.07;7.10;;;;;;;30.99;30.12;95013.66;5051653;28;20526;-82
2022/07/27 11:21:18;;;;;;;11.02;6.88;;;;;;;30.92;30.41;95020.44;5049008;28;20032;-82
2022/07/27 11:23:45;;;;;;;11.73;6.80;;;;;;;31.14;30.63;95015.16;5085948;28;20077;-82
2022/07/27 11:26:10;;;;;;;7.47;6.78;;;;;;;31.37;29.99;95009.53;5050093;28;20028;-83
2022/07/27 11:28:36;;;;;;;7.60;6.28;;;;;;;31.63;30.48;95012.38;5085119;28;20031;-81